sensor_id;sensor_type;location;lat;lon;timestamp;P1;durP1;ratioP1;P2;durP2;ratioP2
74170;SDS011;62526;50.948;6.590;2023-02-14T00:03:05;11.23;;;7.17;;
74170;SDS011;62526;50.948;6.590;2023-02-14T00:35:53;12.07;;;7.20;;
74170;SDS011;62526;50.948;6.590;2023-02-14T00:43:45;12.93;;;7.73;;
74170;SDS011;62526;50.948;6.590;2023-02-14T01:24:45;15.30;;;9.47;;
74170;SDS011;62526;50.948;6.590;2023-02-14T01:30:17;17.50;;;10.30;;
74170;SDS011;62526;50.948;6.590;2023-02-14T01:35:30;13.60;;;8.83;;
74170;SDS011;62526;50.948;6.590;2023-02-14T04:22:19;15.77;;;9.03;;
74170;SDS011;62526;50.948;6.590;2023-02-14T04:32:54;21.20;;;11.23;;
74170;SDS011;62526;50.948;6.590;2023-02-14T04:35:21;17.57;;;11.07;;
74170;SDS011;62526;50.948;6.590;2023-02-14T04:46:04;19.23;;;11.03;;
74170;SDS011;62526;50.948;6.590;2023-02-14T04:51:19;16.87;;;10.30;;
74170;SDS011;62526;50.948;6.590;2023-02-14T04:53:46;16.63;;;9.50;;
74170;SDS011;62526;50.948;6.590;2023-02-14T04:58:58;19.27;;;9.77;;
74170;SDS011;62526;50.948;6.590;2023-02-14T05:01:26;19.60;;;9.43;;
74170;SDS011;62526;50.948;6.590;2023-02-14T05:06:38;17.80;;;8.83;;
74170;SDS011;62526;50.948;6.590;2023-02-14T05:36:39;22.03;;;11.47;;
74170;SDS011;62526;50.948;6.590;2023-02-14T05:52:44;20.10;;;11.27;;
74170;SDS011;62526;50.948;6.590;2023-02-14T06:00:42;19.47;;;10.47;;
74170;SDS011;62526;50.948;6.590;2023-02-14T06:05:46;19.90;;;11.47;;
74170;SDS011;62526;50.948;6.590;2023-02-14T06:08:13;23.30;;;12.20;;
74170;SDS011;62526;50.948;6.590;2023-02-14T06:10:40;21.07;;;11.03;;
74170;SDS011;62526;50.948;6.590;2023-02-14T06:13:07;19.20;;;11.27;;
74170;SDS011;62526;50.948;6.590;2023-02-14T06:15:34;21.00;;;12.67;;
74170;SDS011;62526;50.948;6.590;2023-02-14T06:18:00;19.87;;;11.40;;
74170;SDS011;62526;50.948;6.590;2023-02-14T06:20:27;23.53;;;12.27;;
74170;SDS011;62526;50.948;6.590;2023-02-14T06:22:53;21.30;;;11.73;;
74170;SDS011;62526;50.948;6.590;2023-02-14T06:25:20;23.10;;;12.07;;
74170;SDS011;62526;50.948;6.590;2023-02-14T06:27:47;20.60;;;12.10;;
74170;SDS011;62526;50.948;6.590;2023-02-14T06:30:14;22.73;;;11.87;;
74170;SDS011;62526;50.948;6.590;2023-02-14T06:32:41;20.53;;;11.50;;
74170;SDS011;62526;50.948;6.590;2023-02-14T06:35:08;19.33;;;10.73;;
74170;SDS011;62526;50.948;6.590;2023-02-14T06:37:34;22.40;;;14.57;;
74170;SDS011;62526;50.948;6.590;2023-02-14T06:40:01;23.40;;;11.33;;
74170;SDS011;62526;50.948;6.590;2023-02-14T06:42:27;19.17;;;11.63;;
74170;SDS011;62526;50.948;6.590;2023-02-14T06:44:54;27.20;;;13.20;;
74170;SDS011;62526;50.948;6.590;2023-02-14T06:47:20;22.60;;;12.37;;
74170;SDS011;62526;50.948;6.590;2023-02-14T06:49:47;24.17;;;12.57;;
74170;SDS011;62526;50.948;6.590;2023-02-14T06:52:14;22.13;;;12.37;;
74170;SDS011;62526;50.948;6.590;2023-02-14T06:54:41;21.83;;;12.30;;
74170;SDS011;62526;50.948;6.590;2023-02-14T06:57:08;28.03;;;14.10;;
74170;SDS011;62526;50.948;6.590;2023-02-14T06:59:35;29.03;;;14.27;;
74170;SDS011;62526;50.948;6.590;2023-02-14T07:02:02;26.33;;;13.63;;
74170;SDS011;62526;50.948;6.590;2023-02-14T07:04:29;28.30;;;14.23;;
74170;SDS011;62526;50.948;6.590;2023-02-14T07:06:55;22.37;;;13.47;;
74170;SDS011;62526;50.948;6.590;2023-02-14T07:09:23;30.13;;;13.87;;
74170;SDS011;62526;50.948;6.590;2023-02-14T07:11:49;26.97;;;14.00;;
74170;SDS011;62526;50.948;6.590;2023-02-14T07:14:16;26.57;;;13.93;;
74170;SDS011;62526;50.948;6.590;2023-02-14T07:16:45;25.37;;;13.77;;
74170;SDS011;62526;50.948;6.590;2023-02-14T07:19:11;24.87;;;13.90;;
74170;SDS011;62526;50.948;6.590;2023-02-14T07:21:38;21.13;;;12.93;;
74170;SDS011;62526;50.948;6.590;2023-02-14T07:24:05;23.43;;;14.60;;
74170;SDS011;62526;50.948;6.590;2023-02-14T07:26:31;22.67;;;12.93;;
74170;SDS011;62526;50.948;6.590;2023-02-14T07:28:58;27.10;;;14.10;;
74170;SDS011;62526;50.948;6.590;2023-02-14T07:31:25;25.20;;;14.27;;
74170;SDS011;62526;50.948;6.590;2023-02-14T07:33:52;25.20;;;14.70;;
74170;SDS011;62526;50.948;6.590;2023-02-14T07:36:19;28.97;;;15.57;;
74170;SDS011;62526;50.948;6.590;2023-02-14T07:38:46;25.87;;;14.87;;
74170;SDS011;62526;50.948;6.590;2023-02-14T07:41:13;29.73;;;14.80;;
74170;SDS011;62526;50.948;6.590;2023-02-14T07:43:40;28.03;;;14.63;;
74170;SDS011;62526;50.948;6.590;2023-02-14T07:46:06;26.70;;;15.27;;
74170;SDS011;62526;50.948;6.590;2023-02-14T07:48:33;32.83;;;14.90;;
74170;SDS011;62526;50.948;6.590;2023-02-14T07:51:00;31.17;;;15.87;;
74170;SDS011;62526;50.948;6.590;2023-02-14T07:53:27;27.63;;;15.13;;
74170;SDS011;62526;50.948;6.590;2023-02-14T07:55:53;28.13;;;15.80;;
74170;SDS011;62526;50.948;6.590;2023-02-14T07:58:21;27.57;;;14.93;;
74170;SDS011;62526;50.948;6.590;2023-02-14T08:00:50;32.77;;;17.17;;
74170;SDS011;62526;50.948;6.590;2023-02-14T08:03:18;35.50;;;18.47;;
74170;SDS011;62526;50.948;6.590;2023-02-14T08:05:54;42.60;;;19.17;;
74170;SDS011;62526;50.948;6.590;2023-02-14T08:08:26;32.90;;;18.03;;
74170;SDS011;62526;50.948;6.590;2023-02-14T08:10:56;37.43;;;17.70;;
74170;SDS011;62526;50.948;6.590;2023-02-14T08:13:34;31.50;;;17.07;;
74170;SDS011;62526;50.948;6.590;2023-02-14T08:16:02;32.57;;;18.40;;
74170;SDS011;62526;50.948;6.590;2023-02-14T08:18:41;35.93;;;18.57;;
74170;SDS011;62526;50.948;6.590;2023-02-14T08:21:11;34.27;;;18.37;;
74170;SDS011;62526;50.948;6.590;2023-02-14T08:23:41;38.83;;;18.97;;
74170;SDS011;62526;50.948;6.590;2023-02-14T08:26:08;44.57;;;21.10;;
74170;SDS011;62526;50.948;6.590;2023-02-14T08:28:37;47.13;;;24.63;;
74170;SDS011;62526;50.948;6.590;2023-02-14T08:31:05;44.73;;;24.57;;
74170;SDS011;62526;50.948;6.590;2023-02-14T08:33:33;41.13;;;22.50;;
74170;SDS011;62526;50.948;6.590;2023-02-14T08:36:02;38.17;;;21.50;;
74170;SDS011;62526;50.948;6.590;2023-02-14T08:38:36;40.23;;;21.00;;
74170;SDS011;62526;50.948;6.590;2023-02-14T08:41:09;36.73;;;20.53;;
74170;SDS011;62526;50.948;6.590;2023-02-14T08:43:38;40.90;;;21.67;;
74170;SDS011;62526;50.948;6.590;2023-02-14T08:59:55;37.30;;;19.37;;
74170;SDS011;62526;50.948;6.590;2023-02-14T09:08:00;35.83;;;19.53;;
74170;SDS011;62526;50.948;6.590;2023-02-14T09:10:39;42.17;;;20.10;;
74170;SDS011;62526;50.948;6.590;2023-02-14T09:15:51;35.77;;;18.63;;
74170;SDS011;62526;50.948;6.590;2023-02-14T09:34:48;34.10;;;18.43;;
74170;SDS011;62526;50.948;6.590;2023-02-14T09:37:16;48.13;;;20.50;;
74170;SDS011;62526;50.948;6.590;2023-02-14T09:45:29;35.37;;;18.53;;
74170;SDS011;62526;50.948;6.590;2023-02-14T09:56:35;31.50;;;18.53;;
74170;SDS011;62526;50.948;6.590;2023-02-14T10:01:45;31.37;;;18.07;;
74170;SDS011;62526;50.948;6.590;2023-02-14T10:12:37;32.83;;;17.73;;
74170;SDS011;62526;50.948;6.590;2023-02-14T11:36:10;21.27;;;13.15;;
74170;SDS011;62526;50.948;6.590;2023-02-14T12:06:22;19.00;;;11.55;;
74170;SDS011;62526;50.948;6.590;2023-02-14T12:22:54;20.95;;;14.23;;
74170;SDS011;62526;50.948;6.590;2023-02-14T12:27:56;21.77;;;13.02;;
74170;SDS011;62526;50.948;6.590;2023-02-14T12:30:23;21.83;;;13.15;;
74170;SDS011;62526;50.948;6.590;2023-02-14T12:32:54;25.10;;;15.02;;
74170;SDS011;62526;50.948;6.590;2023-02-14T12:38:12;19.95;;;14.57;;
74170;SDS011;62526;50.948;6.590;2023-02-14T12:43:46;21.25;;;13.32;;
74170;SDS011;62526;50.948;6.590;2023-02-14T12:46:31;24.40;;;13.02;;
74170;SDS011;62526;50.948;6.590;2023-02-14T12:49:00;20.17;;;12.55;;
74170;SDS011;62526;50.948;6.590;2023-02-14T12:54:28;26.67;;;13.73;;
74170;SDS011;62526;50.948;6.590;2023-02-14T17:37:23;28.57;;;13.13;;
74170;SDS011;62526;50.948;6.590;2023-02-14T17:40:26;21.10;;;13.43;;
74170;SDS011;62526;50.948;6.590;2023-02-14T17:42:49;27.57;;;14.30;;
74170;SDS011;62526;50.948;6.590;2023-02-14T17:53:58;23.93;;;13.40;;
74170;SDS011;62526;50.948;6.590;2023-02-14T17:56:40;26.77;;;13.57;;
74170;SDS011;62526;50.948;6.590;2023-02-14T17:59:06;28.63;;;13.57;;
74170;SDS011;62526;50.948;6.590;2023-02-14T18:04:19;22.60;;;12.97;;
74170;SDS011;62526;50.948;6.590;2023-02-14T18:06:53;21.60;;;13.20;;
74170;SDS011;62526;50.948;6.590;2023-02-14T18:09:34;30.90;;;13.23;;
74170;SDS011;62526;50.948;6.590;2023-02-14T18:15:07;35.23;;;16.53;;
74170;SDS011;62526;50.948;6.590;2023-02-14T18:17:35;26.60;;;15.10;;
74170;SDS011;62526;50.948;6.590;2023-02-14T18:20:02;26.27;;;15.87;;
74170;SDS011;62526;50.948;6.590;2023-02-14T18:22:30;35.87;;;19.17;;
74170;SDS011;62526;50.948;6.590;2023-02-14T18:24:56;26.33;;;14.93;;
74170;SDS011;62526;50.948;6.590;2023-02-14T18:27:23;26.87;;;14.00;;
74170;SDS011;62526;50.948;6.590;2023-02-14T18:29:50;24.27;;;14.43;;
74170;SDS011;62526;50.948;6.590;2023-02-14T18:32:17;23.50;;;14.90;;
74170;SDS011;62526;50.948;6.590;2023-02-14T18:34:45;22.40;;;13.57;;
74170;SDS011;62526;50.948;6.590;2023-02-14T18:37:12;26.17;;;14.00;;
74170;SDS011;62526;50.948;6.590;2023-02-14T18:39:41;26.47;;;14.43;;
74170;SDS011;62526;50.948;6.590;2023-02-14T18:42:09;27.57;;;13.80;;
74170;SDS011;62526;50.948;6.590;2023-02-14T18:44:39;27.37;;;14.30;;
74170;SDS011;62526;50.948;6.590;2023-02-14T18:47:08;23.07;;;14.27;;
74170;SDS011;62526;50.948;6.590;2023-02-14T18:49:40;28.30;;;13.67;;
74170;SDS011;62526;50.948;6.590;2023-02-14T18:52:10;22.73;;;13.83;;
74170;SDS011;62526;50.948;6.590;2023-02-14T18:54:37;23.40;;;13.53;;
74170;SDS011;62526;50.948;6.590;2023-02-14T18:57:04;23.93;;;13.70;;
74170;SDS011;62526;50.948;6.590;2023-02-14T18:59:32;23.83;;;14.20;;
74170;SDS011;62526;50.948;6.590;2023-02-14T19:01:59;22.93;;;12.07;;
74170;SDS011;62526;50.948;6.590;2023-02-14T19:04:27;22.17;;;13.50;;
74170;SDS011;62526;50.948;6.590;2023-02-14T19:06:55;27.57;;;14.57;;
74170;SDS011;62526;50.948;6.590;2023-02-14T19:09:26;26.10;;;14.17;;
74170;SDS011;62526;50.948;6.590;2023-02-14T19:11:57;27.50;;;14.23;;
74170;SDS011;62526;50.948;6.590;2023-02-14T19:14:27;23.00;;;13.43;;
74170;SDS011;62526;50.948;6.590;2023-02-14T19:16:58;28.53;;;14.07;;
74170;SDS011;62526;50.948;6.590;2023-02-14T19:19:26;26.07;;;13.80;;
74170;SDS011;62526;50.948;6.590;2023-02-14T19:21:54;22.03;;;13.07;;
74170;SDS011;62526;50.948;6.590;2023-02-14T19:24:20;27.60;;;14.67;;
74170;SDS011;62526;50.948;6.590;2023-02-14T19:26:46;22.63;;;14.33;;
74170;SDS011;62526;50.948;6.590;2023-02-14T19:29:14;23.00;;;14.30;;
74170;SDS011;62526;50.948;6.590;2023-02-14T19:31:42;24.20;;;14.30;;
74170;SDS011;62526;50.948;6.590;2023-02-14T19:34:14;29.30;;;15.73;;
74170;SDS011;62526;50.948;6.590;2023-02-14T19:36:45;27.00;;;14.83;;
74170;SDS011;62526;50.948;6.590;2023-02-14T19:39:18;25.23;;;14.50;;
74170;SDS011;62526;50.948;6.590;2023-02-14T19:41:54;25.70;;;15.07;;
74170;SDS011;62526;50.948;6.590;2023-02-14T19:44:21;25.97;;;15.00;;
74170;SDS011;62526;50.948;6.590;2023-02-14T19:46:47;23.80;;;14.50;;
74170;SDS011;62526;50.948;6.590;2023-02-14T19:49:15;25.93;;;14.23;;
74170;SDS011;62526;50.948;6.590;2023-02-14T19:51:43;25.83;;;15.27;;
74170;SDS011;62526;50.948;6.590;2023-02-14T19:54:13;30.67;;;15.53;;
74170;SDS011;62526;50.948;6.590;2023-02-14T19:56:41;27.33;;;15.27;;
74170;SDS011;62526;50.948;6.590;2023-02-14T19:59:10;25.47;;;14.80;;
74170;SDS011;62526;50.948;6.590;2023-02-14T20:01:38;27.17;;;14.03;;
74170;SDS011;62526;50.948;6.590;2023-02-14T20:04:03;24.30;;;14.87;;
74170;SDS011;62526;50.948;6.590;2023-02-14T20:06:31;24.80;;;14.83;;
74170;SDS011;62526;50.948;6.590;2023-02-14T20:08:58;25.63;;;14.77;;
74170;SDS011;62526;50.948;6.590;2023-02-14T20:11:29;28.40;;;16.07;;
74170;SDS011;62526;50.948;6.590;2023-02-14T20:14:17;32.03;;;16.00;;
74170;SDS011;62526;50.948;6.590;2023-02-14T20:16:43;26.10;;;15.73;;
74170;SDS011;62526;50.948;6.590;2023-02-14T20:19:11;26.00;;;14.60;;
74170;SDS011;62526;50.948;6.590;2023-02-14T20:21:38;26.07;;;15.00;;
74170;SDS011;62526;50.948;6.590;2023-02-14T20:24:05;30.97;;;16.10;;
74170;SDS011;62526;50.948;6.590;2023-02-14T20:26:32;35.17;;;15.67;;
74170;SDS011;62526;50.948;6.590;2023-02-14T20:28:59;28.23;;;15.57;;
74170;SDS011;62526;50.948;6.590;2023-02-14T20:31:30;25.30;;;15.03;;
74170;SDS011;62526;50.948;6.590;2023-02-14T20:33:56;28.53;;;15.70;;
74170;SDS011;62526;50.948;6.590;2023-02-14T20:36:24;30.03;;;16.03;;
74170;SDS011;62526;50.948;6.590;2023-02-14T20:38:54;33.57;;;15.77;;
74170;SDS011;62526;50.948;6.590;2023-02-14T20:41:21;28.67;;;15.67;;
74170;SDS011;62526;50.948;6.590;2023-02-14T20:43:48;30.87;;;16.60;;
74170;SDS011;62526;50.948;6.590;2023-02-14T20:46:15;32.50;;;17.33;;
74170;SDS011;62526;50.948;6.590;2023-02-14T20:48:41;29.67;;;16.47;;
74170;SDS011;62526;50.948;6.590;2023-02-14T20:53:49;28.63;;;16.13;;
74170;SDS011;62526;50.948;6.590;2023-02-14T20:56:17;31.70;;;16.87;;
74170;SDS011;62526;50.948;6.590;2023-02-14T20:58:44;30.83;;;17.20;;
74170;SDS011;62526;50.948;6.590;2023-02-14T21:01:14;36.47;;;16.83;;
74170;SDS011;62526;50.948;6.590;2023-02-14T21:03:44;27.63;;;16.23;;
74170;SDS011;62526;50.948;6.590;2023-02-14T21:06:09;29.03;;;17.27;;
74170;SDS011;62526;50.948;6.590;2023-02-14T21:08:37;26.87;;;15.23;;
74170;SDS011;62526;50.948;6.590;2023-02-14T21:11:04;30.23;;;16.83;;
74170;SDS011;62526;50.948;6.590;2023-02-14T21:13:30;29.17;;;16.50;;
74170;SDS011;62526;50.948;6.590;2023-02-14T21:16:02;31.90;;;17.57;;
74170;SDS011;62526;50.948;6.590;2023-02-14T21:18:30;28.27;;;15.57;;
74170;SDS011;62526;50.948;6.590;2023-02-14T21:23:30;30.07;;;16.53;;
74170;SDS011;62526;50.948;6.590;2023-02-14T21:25:58;31.40;;;17.50;;
74170;SDS011;62526;50.948;6.590;2023-02-14T21:28:25;28.90;;;16.23;;
74170;SDS011;62526;50.948;6.590;2023-02-14T21:31:00;28.10;;;16.10;;
74170;SDS011;62526;50.948;6.590;2023-02-14T21:33:18;34.23;;;17.40;;
74170;SDS011;62526;50.948;6.590;2023-02-14T21:35:46;29.40;;;16.10;;
74170;SDS011;62526;50.948;6.590;2023-02-14T21:38:12;32.03;;;17.47;;
74170;SDS011;62526;50.948;6.590;2023-02-14T21:40:39;32.73;;;17.93;;
74170;SDS011;62526;50.948;6.590;2023-02-14T21:43:06;33.53;;;17.47;;
74170;SDS011;62526;50.948;6.590;2023-02-14T21:45:33;28.90;;;16.93;;
74170;SDS011;62526;50.948;6.590;2023-02-14T21:48:06;34.63;;;17.97;;
74170;SDS011;62526;50.948;6.590;2023-02-14T21:53:24;29.60;;;16.13;;
74170;SDS011;62526;50.948;6.590;2023-02-14T21:55:51;33.43;;;18.57;;
74170;SDS011;62526;50.948;6.590;2023-02-14T21:58:18;33.57;;;17.10;;
74170;SDS011;62526;50.948;6.590;2023-02-14T22:00:45;34.90;;;18.27;;
74170;SDS011;62526;50.948;6.590;2023-02-14T22:03:13;31.13;;;16.17;;
74170;SDS011;62526;50.948;6.590;2023-02-14T22:05:40;33.27;;;17.90;;
74170;SDS011;62526;50.948;6.590;2023-02-14T22:08:06;30.10;;;16.87;;
74170;SDS011;62526;50.948;6.590;2023-02-14T22:10:33;34.57;;;17.67;;
74170;SDS011;62526;50.948;6.590;2023-02-14T22:12:59;29.40;;;16.60;;
74170;SDS011;62526;50.948;6.590;2023-02-14T22:15:27;31.83;;;18.00;;
74170;SDS011;62526;50.948;6.590;2023-02-14T22:17:54;36.73;;;18.87;;
74170;SDS011;62526;50.948;6.590;2023-02-14T22:20:20;30.10;;;15.90;;
74170;SDS011;62526;50.948;6.590;2023-02-14T22:22:47;35.23;;;17.40;;
74170;SDS011;62526;50.948;6.590;2023-02-14T22:25:13;38.30;;;18.37;;
74170;SDS011;62526;50.948;6.590;2023-02-14T22:27:40;32.33;;;18.37;;
74170;SDS011;62526;50.948;6.590;2023-02-14T22:30:07;32.20;;;17.27;;
74170;SDS011;62526;50.948;6.590;2023-02-14T22:32:33;31.73;;;16.97;;
74170;SDS011;62526;50.948;6.590;2023-02-14T22:35:00;32.50;;;17.40;;
74170;SDS011;62526;50.948;6.590;2023-02-14T22:37:27;31.63;;;17.80;;
74170;SDS011;62526;50.948;6.590;2023-02-14T22:39:53;33.90;;;16.87;;
74170;SDS011;62526;50.948;6.590;2023-02-14T22:42:20;35.07;;;17.30;;
74170;SDS011;62526;50.948;6.590;2023-02-14T22:44:47;29.80;;;15.93;;
74170;SDS011;62526;50.948;6.590;2023-02-14T22:47:13;31.23;;;17.60;;
74170;SDS011;62526;50.948;6.590;2023-02-14T22:49:40;35.60;;;17.57;;
74170;SDS011;62526;50.948;6.590;2023-02-14T22:52:06;32.50;;;17.93;;
74170;SDS011;62526;50.948;6.590;2023-02-14T22:54:33;37.23;;;18.43;;
74170;SDS011;62526;50.948;6.590;2023-02-14T22:57:01;30.10;;;16.60;;
74170;SDS011;62526;50.948;6.590;2023-02-14T22:59:27;33.83;;;17.73;;
74170;SDS011;62526;50.948;6.590;2023-02-14T23:01:55;32.07;;;17.17;;
74170;SDS011;62526;50.948;6.590;2023-02-14T23:04:21;33.80;;;17.40;;
74170;SDS011;62526;50.948;6.590;2023-02-14T23:06:49;35.03;;;19.07;;
74170;SDS011;62526;50.948;6.590;2023-02-14T23:09:15;33.37;;;18.00;;
74170;SDS011;62526;50.948;6.590;2023-02-14T23:11:42;32.77;;;18.33;;
74170;SDS011;62526;50.948;6.590;2023-02-14T23:14:09;32.43;;;17.30;;
74170;SDS011;62526;50.948;6.590;2023-02-14T23:16:42;32.90;;;16.83;;
74170;SDS011;62526;50.948;6.590;2023-02-14T23:19:15;34.93;;;18.47;;
74170;SDS011;62526;50.948;6.590;2023-02-14T23:21:48;30.50;;;16.63;;
74170;SDS011;62526;50.948;6.590;2023-02-14T23:24:19;35.13;;;17.00;;
74170;SDS011;62526;50.948;6.590;2023-02-14T23:26:47;34.53;;;17.03;;
74170;SDS011;62526;50.948;6.590;2023-02-14T23:29:13;33.30;;;18.47;;
74170;SDS011;62526;50.948;6.590;2023-02-14T23:31:40;36.13;;;18.83;;
74170;SDS011;62526;50.948;6.590;2023-02-14T23:34:06;33.90;;;18.80;;
74170;SDS011;62526;50.948;6.590;2023-02-14T23:36:34;33.80;;;17.60;;
74170;SDS011;62526;50.948;6.590;2023-02-14T23:39:01;31.30;;;17.20;;
74170;SDS011;62526;50.948;6.590;2023-02-14T23:41:27;37.17;;;19.27;;
74170;SDS011;62526;50.948;6.590;2023-02-14T23:44:00;36.17;;;18.20;;
74170;SDS011;62526;50.948;6.590;2023-02-14T23:46:27;44.23;;;20.23;;
74170;SDS011;62526;50.948;6.590;2023-02-14T23:48:53;37.10;;;19.27;;
74170;SDS011;62526;50.948;6.590;2023-02-14T23:51:20;35.17;;;17.83;;
74170;SDS011;62526;50.948;6.590;2023-02-14T23:53:47;39.17;;;18.70;;
74170;SDS011;62526;50.948;6.590;2023-02-14T23:56:13;42.13;;;21.57;;
74170;SDS011;62526;50.948;6.590;2023-02-14T23:58:40;36.87;;;18.33;;
